createdAt,value
2022-11-07T00:00:35.222Z,6.74
2022-11-07T00:01:35.253Z,6.75
2022-11-07T00:02:35.306Z,6.72
2022-11-07T00:03:35.256Z,6.74
2022-11-07T00:04:35.271Z,6.72
2022-11-07T00:05:35.280Z,6.77
2022-11-07T00:06:35.290Z,6.77
2022-11-07T00:07:35.300Z,6.78
2022-11-07T00:08:35.315Z,6.77
2022-11-07T00:09:35.325Z,6.86
2022-11-07T00:10:35.339Z,6.83
2022-11-07T00:11:35.349Z,6.82
2022-11-07T00:12:35.361Z,6.87
2022-11-07T00:13:35.373Z,6.92
2022-11-07T00:14:35.679Z,6.89
2022-11-07T00:15:35.395Z,6.87
2022-11-07T00:16:35.409Z,6.86
2022-11-07T00:17:35.422Z,6.80
2022-11-07T00:18:35.431Z,6.87
2022-11-07T00:19:35.446Z,6.89
2022-11-07T00:20:35.456Z,6.93
2022-11-07T00:21:35.470Z,6.85
2022-11-07T00:22:35.478Z,6.83
2022-11-07T00:23:35.491Z,6.86
2022-11-07T00:24:35.503Z,6.89
2022-11-07T00:25:35.516Z,6.89
2022-11-07T00:26:35.528Z,6.93
2022-11-07T00:27:35.562Z,6.87
2022-11-07T00:28:35.550Z,6.89
2022-11-07T00:29:35.564Z,6.93
2022-11-07T00:30:35.575Z,6.86
2022-11-07T00:31:35.586Z,6.85
2022-11-07T00:32:35.596Z,6.82
2022-11-07T00:33:35.608Z,6.82
2022-11-07T00:34:35.621Z,6.87
2022-11-07T00:35:35.632Z,6.89
2022-11-07T00:36:35.643Z,6.83
2022-11-07T00:37:35.657Z,6.86
2022-11-07T00:38:35.666Z,6.83
2022-11-07T00:39:35.679Z,6.87
2022-11-07T00:40:35.691Z,6.85
2022-11-07T00:41:35.704Z,6.86
2022-11-07T00:42:35.713Z,6.85
2022-11-07T00:43:35.726Z,6.86
2022-11-07T00:44:35.737Z,6.80
2022-11-07T00:45:35.751Z,6.75
2022-11-07T00:46:35.761Z,6.83
2022-11-07T00:47:35.772Z,6.82
2022-11-07T00:48:35.785Z,6.82
2022-11-07T00:49:35.795Z,6.78
2022-11-07T00:50:35.809Z,6.75
2022-11-07T00:51:35.818Z,6.82
2022-11-07T00:52:35.831Z,6.80
2022-11-07T00:53:35.842Z,6.75
2022-11-07T00:54:35.852Z,6.75
2022-11-07T00:55:35.866Z,6.72
2022-11-07T00:56:35.876Z,6.77
2022-11-07T00:57:35.889Z,6.75
2022-11-07T00:58:35.899Z,6.77
2022-11-07T00:59:35.911Z,6.80
2022-11-07T01:00:35.926Z,6.75
2022-11-07T01:01:36.089Z,6.75
2022-11-07T01:02:35.994Z,6.77
2022-11-07T01:03:35.960Z,6.78
2022-11-07T01:04:35.970Z,6.72
2022-11-07T01:05:35.980Z,6.78
2022-11-07T01:06:35.992Z,6.78
2022-11-07T01:07:36.005Z,6.75
2022-11-07T01:08:36.017Z,6.82
2022-11-07T01:09:36.027Z,6.80
2022-11-07T01:10:36.042Z,6.74
2022-11-07T01:11:36.051Z,6.77
2022-11-07T01:12:36.061Z,6.71
2022-11-07T01:13:36.074Z,6.72
2022-11-07T01:14:36.086Z,6.78
2022-11-07T01:15:36.099Z,6.72
2022-11-07T01:16:36.110Z,6.83
2022-11-07T01:17:36.120Z,6.74
2022-11-07T01:18:36.136Z,6.77
2022-11-07T01:19:36.144Z,6.82
2022-11-07T01:20:36.155Z,6.82
2022-11-07T01:21:36.167Z,6.78
2022-11-07T01:22:36.179Z,6.77
2022-11-07T01:23:36.191Z,6.75
2022-11-07T01:24:36.209Z,6.80
2022-11-07T01:25:36.227Z,6.72
2022-11-07T01:26:36.237Z,6.71
2022-11-07T01:27:36.237Z,6.82
2022-11-07T01:28:36.250Z,6.85
2022-11-07T01:29:36.261Z,6.77
2022-11-07T01:30:36.280Z,6.78
2022-11-07T01:31:36.308Z,6.78
2022-11-07T01:32:36.298Z,6.78
2022-11-07T01:33:36.308Z,6.74
2022-11-07T01:34:36.322Z,6.74
2022-11-07T01:35:36.332Z,6.77
2022-11-07T01:36:36.345Z,6.83
2022-11-07T01:37:36.358Z,6.80
2022-11-07T01:38:36.368Z,6.74
2022-11-07T01:39:36.379Z,6.78
2022-11-07T01:40:36.440Z,6.78
2022-11-07T01:41:36.404Z,6.80
2022-11-07T01:42:36.414Z,6.78
2022-11-07T01:43:36.429Z,6.77
2022-11-07T01:44:36.438Z,6.72
2022-11-07T01:45:36.449Z,6.75
2022-11-07T01:46:36.460Z,6.83
2022-11-07T01:47:36.480Z,6.74
2022-11-07T01:48:36.484Z,6.71
2022-11-07T01:49:36.496Z,6.70
2022-11-07T01:50:36.507Z,6.78
2022-11-07T01:51:36.521Z,6.72
2022-11-07T01:52:36.531Z,6.75
2022-11-07T01:53:36.543Z,6.74
2022-11-07T01:54:36.557Z,6.82
2022-11-07T01:55:36.566Z,6.75
2022-11-07T01:56:36.577Z,6.75
2022-11-07T01:57:36.589Z,6.77
2022-11-07T01:58:36.603Z,6.72
2022-11-07T01:59:36.614Z,6.85
2022-11-07T02:00:36.625Z,6.80
2022-11-07T02:01:36.722Z,6.74
2022-11-07T02:02:36.838Z,6.83
2022-11-07T02:03:36.662Z,6.89
2022-11-07T02:04:36.674Z,6.86
2022-11-07T02:05:36.683Z,6.86
2022-11-07T02:06:36.695Z,6.83
2022-11-07T02:07:36.707Z,6.87
2022-11-07T02:08:36.720Z,6.83
2022-11-07T02:09:36.737Z,6.87
2022-11-07T02:10:36.744Z,6.85
2022-11-07T02:11:36.756Z,6.87
2022-11-07T02:12:36.769Z,6.89
2022-11-07T02:13:36.779Z,6.95
2022-11-07T02:14:36.800Z,6.90
2022-11-07T02:15:36.812Z,6.93
2022-11-07T02:16:36.817Z,7.00
2022-11-07T02:17:36.825Z,6.97
2022-11-07T02:18:36.838Z,6.92
2022-11-07T02:19:36.849Z,7.00
2022-11-07T02:20:36.862Z,7.00
2022-11-07T02:21:36.874Z,6.95
2022-11-07T02:22:36.885Z,7.00
2022-11-07T02:23:36.899Z,7.01
2022-11-07T02:24:36.910Z,7.01
2022-11-07T02:25:36.923Z,6.97
2022-11-07T02:26:36.933Z,7.08
2022-11-07T02:27:36.946Z,6.97
2022-11-07T02:28:36.959Z,7.08
2022-11-07T02:29:36.969Z,7.08
2022-11-07T02:30:36.980Z,7.04
2022-11-07T02:31:36.996Z,7.10
2022-11-07T02:32:37.007Z,7.10
2022-11-07T02:33:37.024Z,7.05
2022-11-07T02:34:37.031Z,7.11
2022-11-07T02:35:37.046Z,7.11
2022-11-07T02:36:37.058Z,7.10
2022-11-07T02:37:37.079Z,7.07
2022-11-07T02:38:37.083Z,7.11
2022-11-07T02:39:37.093Z,7.13
2022-11-07T02:40:37.114Z,7.13
2022-11-07T02:41:37.115Z,7.21
2022-11-07T02:42:37.127Z,7.21
2022-11-07T02:43:37.144Z,7.11
2022-11-07T02:44:37.154Z,7.18
2022-11-07T02:45:37.165Z,7.11
2022-11-07T02:46:37.191Z,7.11
2022-11-07T02:47:37.196Z,7.11
2022-11-07T02:48:37.201Z,7.21
2022-11-07T02:49:37.215Z,7.11
2022-11-07T02:50:37.233Z,7.11
2022-11-07T02:51:37.240Z,7.22
2022-11-07T02:52:37.249Z,7.23
2022-11-07T02:53:37.260Z,7.19
2022-11-07T02:54:37.275Z,7.22
2022-11-07T02:55:37.291Z,7.29
2022-11-07T02:56:37.306Z,7.29
2022-11-07T02:57:37.313Z,7.26
2022-11-07T02:58:37.320Z,7.26
2022-11-07T02:59:37.336Z,7.22
2022-11-07T03:00:37.346Z,7.23
2022-11-07T03:01:37.501Z,7.26
2022-11-07T03:02:37.429Z,7.29
2022-11-07T03:03:37.383Z,7.26
2022-11-07T03:04:37.394Z,7.26
2022-11-07T03:05:37.406Z,7.29
2022-11-07T03:06:37.418Z,7.32
2022-11-07T03:07:37.429Z,7.40
2022-11-07T03:08:37.443Z,7.44
2022-11-07T03:09:37.457Z,7.29
2022-11-07T03:10:37.470Z,7.41
2022-11-07T03:11:37.480Z,7.36
2022-11-07T03:12:37.490Z,7.40
2022-11-07T03:13:37.504Z,7.47
2022-11-07T03:14:37.570Z,7.43
2022-11-07T03:15:37.531Z,7.40
2022-11-07T03:16:37.541Z,7.50
2022-11-07T03:17:37.555Z,7.40
2022-11-07T03:18:37.566Z,7.50
2022-11-07T03:19:37.577Z,7.55
2022-11-07T03:20:37.590Z,7.53
2022-11-07T03:21:37.604Z,7.50
2022-11-07T03:22:37.619Z,7.51
2022-11-07T03:23:37.628Z,7.47
2022-11-07T03:24:37.639Z,7.55
2022-11-07T03:25:37.652Z,7.53
2022-11-07T03:26:37.663Z,7.58
2022-11-07T03:27:37.676Z,7.56
2022-11-07T03:28:37.692Z,7.53
2022-11-07T03:29:37.708Z,7.66
2022-11-07T03:30:37.713Z,7.55
2022-11-07T03:31:37.727Z,7.61
2022-11-07T03:32:37.742Z,7.64
2022-11-07T03:33:37.749Z,7.55
2022-11-07T03:34:37.768Z,7.66
2022-11-07T03:35:37.774Z,7.69
2022-11-07T03:36:37.789Z,7.66
2022-11-07T03:37:37.804Z,7.69
2022-11-07T03:38:37.812Z,7.59
2022-11-07T03:39:37.828Z,7.67
2022-11-07T03:40:37.837Z,7.77
2022-11-07T03:41:37.849Z,7.74
2022-11-07T03:42:37.863Z,7.80
2022-11-07T03:43:37.875Z,7.77
2022-11-07T03:44:37.888Z,7.67
2022-11-07T03:45:37.899Z,7.70
2022-11-07T03:46:37.911Z,7.74
2022-11-07T03:47:37.927Z,7.77
2022-11-07T03:48:37.937Z,7.78
2022-11-07T03:49:37.949Z,7.77
2022-11-07T03:50:37.960Z,7.80
2022-11-07T03:51:37.972Z,7.74
2022-11-07T03:52:37.988Z,7.78
2022-11-07T03:53:37.999Z,7.77
2022-11-07T03:54:38.010Z,7.80
2022-11-07T03:55:38.029Z,7.88
2022-11-07T03:56:38.035Z,7.81
2022-11-07T03:57:38.051Z,7.90
2022-11-07T03:58:38.060Z,7.80
2022-11-07T03:59:38.074Z,7.88
2022-11-07T04:00:38.086Z,7.84
2022-11-07T04:01:38.203Z,7.90
2022-11-07T04:02:38.292Z,7.85
2022-11-07T04:03:38.141Z,7.88
2022-11-07T04:04:38.136Z,7.95
2022-11-07T04:05:38.149Z,7.93
2022-11-07T04:06:38.169Z,7.93
2022-11-07T04:07:38.180Z,7.96
2022-11-07T04:08:38.197Z,7.93
2022-11-07T04:09:38.201Z,7.93
2022-11-07T04:10:38.211Z,7.90
2022-11-07T04:11:38.225Z,7.95
2022-11-07T04:12:38.238Z,7.90
2022-11-07T04:13:38.249Z,7.90
2022-11-07T04:14:38.259Z,7.93
2022-11-07T04:15:38.275Z,7.93
2022-11-07T04:16:38.292Z,7.90
2022-11-07T04:17:38.302Z,7.91
2022-11-07T04:18:38.314Z,7.98
2022-11-07T04:19:38.326Z,7.88
2022-11-07T04:20:38.340Z,7.95
2022-11-07T04:21:38.353Z,7.85
2022-11-07T04:22:38.363Z,7.88
2022-11-07T04:23:38.376Z,7.90
2022-11-07T04:24:42.900Z,7.85
2022-11-07T04:25:38.402Z,7.88
2022-11-07T04:26:38.420Z,7.85
2022-11-07T04:27:38.429Z,7.90
2022-11-07T04:28:38.439Z,7.85
2022-11-07T04:29:38.451Z,7.81
2022-11-07T04:30:38.464Z,7.88
2022-11-07T04:31:38.478Z,7.91
2022-11-07T04:32:38.490Z,7.81
2022-11-07T04:33:38.505Z,7.96
2022-11-07T04:34:38.518Z,7.88
2022-11-07T04:35:38.528Z,7.87
2022-11-07T04:36:38.541Z,7.91
2022-11-07T04:37:38.554Z,8.01
2022-11-07T04:38:38.564Z,8.01
2022-11-07T04:39:38.580Z,7.85
2022-11-07T04:40:38.590Z,7.91
2022-11-07T04:41:38.603Z,7.85
2022-11-07T04:42:38.617Z,7.88
2022-11-07T04:43:38.629Z,7.90
2022-11-07T04:44:38.659Z,7.93
2022-11-07T04:45:38.657Z,7.91
2022-11-07T04:46:38.671Z,7.88
2022-11-07T04:47:40.610Z,7.90
2022-11-07T04:48:38.691Z,7.96
2022-11-07T04:49:38.705Z,7.95
2022-11-07T04:50:38.721Z,7.96
2022-11-07T04:51:38.729Z,7.99
2022-11-07T04:52:38.745Z,7.99
2022-11-07T04:53:38.755Z,7.98
2022-11-07T04:54:38.770Z,8.01
2022-11-07T04:55:38.781Z,7.99
2022-11-07T04:56:38.802Z,7.99
2022-11-07T04:57:38.806Z,8.01
2022-11-07T04:58:38.817Z,8.01
2022-11-07T04:59:38.830Z,8.01
2022-11-07T05:00:38.847Z,8.01
2022-11-07T05:01:38.884Z,8.06
2022-11-07T05:02:38.940Z,8.02
2022-11-07T05:03:41.849Z,8.09
2022-11-07T05:04:38.896Z,8.05
2022-11-07T05:05:38.908Z,8.13
2022-11-07T05:06:38.919Z,8.09
2022-11-07T05:07:38.943Z,8.05
2022-11-07T05:08:38.945Z,8.05
2022-11-07T05:09:38.959Z,8.11
2022-11-07T05:10:38.970Z,8.09
2022-11-07T05:11:38.985Z,8.08
2022-11-07T05:12:38.997Z,8.14
2022-11-07T05:13:39.008Z,8.11
2022-11-07T05:14:39.019Z,8.02
2022-11-07T05:15:39.035Z,8.13
2022-11-07T05:16:39.049Z,8.13
2022-11-07T05:17:39.065Z,8.06
2022-11-07T05:18:39.073Z,8.20
2022-11-07T05:19:39.087Z,8.21
2022-11-07T05:20:39.099Z,8.23
2022-11-07T05:21:39.112Z,8.23
2022-11-07T05:22:39.124Z,8.16
2022-11-07T05:23:39.137Z,8.18
2022-11-07T05:24:39.151Z,8.24
2022-11-07T05:25:39.164Z,8.23
2022-11-07T05:26:39.175Z,8.24
2022-11-07T05:27:39.189Z,8.23
2022-11-07T05:28:39.834Z,8.24
2022-11-07T05:29:39.216Z,8.18
2022-11-07T05:30:39.226Z,8.26
2022-11-07T05:31:39.239Z,8.27
2022-11-07T05:32:39.255Z,8.23
2022-11-07T05:33:39.274Z,8.20
2022-11-07T05:34:39.278Z,8.24
2022-11-07T05:35:39.291Z,8.27
2022-11-07T05:36:39.305Z,8.28
2022-11-07T05:37:39.320Z,8.27
2022-11-07T05:38:39.338Z,8.24
2022-11-07T05:39:39.341Z,8.34
2022-11-07T05:40:39.356Z,8.23
2022-11-07T05:41:39.370Z,8.27
2022-11-07T05:42:39.379Z,8.31
2022-11-07T05:43:39.405Z,8.31
2022-11-07T05:44:39.409Z,8.27
2022-11-07T05:45:39.420Z,8.31
2022-11-07T05:46:39.432Z,8.31
2022-11-07T05:47:39.446Z,8.27
2022-11-07T05:48:39.461Z,8.27
2022-11-07T05:49:39.473Z,8.32
2022-11-07T05:50:39.487Z,8.24
2022-11-07T05:51:39.497Z,8.27
2022-11-07T05:52:39.552Z,8.27
2022-11-07T05:53:39.526Z,8.27
2022-11-07T05:54:39.537Z,8.23
2022-11-07T05:55:39.548Z,8.36
2022-11-07T05:56:39.562Z,8.24
2022-11-07T05:57:39.574Z,8.34
2022-11-07T05:58:39.602Z,8.42
2022-11-07T05:59:39.603Z,8.26
2022-11-07T06:00:39.616Z,8.24
2022-11-07T06:01:39.743Z,8.27
2022-11-07T06:02:39.793Z,8.39
2022-11-07T06:03:39.661Z,8.28
2022-11-07T06:04:39.665Z,8.28
2022-11-07T06:05:39.681Z,8.39
2022-11-07T06:06:39.691Z,8.38
2022-11-07T06:07:39.703Z,8.28
2022-11-07T06:08:39.717Z,8.31
2022-11-07T06:09:39.733Z,8.32
2022-11-07T06:10:39.744Z,8.31
2022-11-07T06:11:39.759Z,8.35
2022-11-07T06:12:39.769Z,8.38
2022-11-07T06:13:39.785Z,8.38
2022-11-07T06:14:39.795Z,8.36
2022-11-07T06:15:39.814Z,8.38
2022-11-07T06:16:39.821Z,8.44
2022-11-07T06:17:39.834Z,8.38
2022-11-07T06:18:41.775Z,8.36
2022-11-07T06:19:39.862Z,8.32
2022-11-07T06:20:39.874Z,8.44
2022-11-07T06:21:39.888Z,8.38
2022-11-07T06:22:39.902Z,8.35
2022-11-07T06:23:39.916Z,8.39
2022-11-07T06:24:39.928Z,8.42
2022-11-07T06:25:39.938Z,8.41
2022-11-07T06:26:39.952Z,8.36
2022-11-07T06:27:39.968Z,8.34
2022-11-07T06:28:39.978Z,8.42
2022-11-07T06:29:39.992Z,8.41
2022-11-07T06:30:40.030Z,8.38
2022-11-07T06:31:40.031Z,8.38
2022-11-07T06:32:40.034Z,8.39
2022-11-07T06:33:40.042Z,8.49
2022-11-07T06:34:40.055Z,8.35
2022-11-07T06:35:40.085Z,8.36
2022-11-07T06:36:40.097Z,8.44
2022-11-07T06:37:40.117Z,8.42
2022-11-07T06:38:40.108Z,8.46
2022-11-07T06:39:40.121Z,8.46
2022-11-07T06:40:40.187Z,8.53
2022-11-07T06:41:40.147Z,8.59
2022-11-07T06:42:40.161Z,8.52
2022-11-07T06:43:40.174Z,8.52
2022-11-07T06:44:40.186Z,8.44
2022-11-07T06:45:40.200Z,8.59
2022-11-07T06:46:40.213Z,8.42
2022-11-07T06:47:40.225Z,8.49
2022-11-07T06:48:40.239Z,8.52
2022-11-07T06:49:40.252Z,8.53
2022-11-07T06:50:40.269Z,8.52
2022-11-07T06:51:42.835Z,8.50
2022-11-07T06:52:40.292Z,8.61
2022-11-07T06:53:40.312Z,8.56
2022-11-07T06:54:40.315Z,8.57
2022-11-07T06:55:40.335Z,8.61
2022-11-07T06:56:40.344Z,8.53
2022-11-07T06:57:40.368Z,8.50
2022-11-07T06:58:40.372Z,8.60
2022-11-07T06:59:40.383Z,8.63
2022-11-07T07:00:40.454Z,8.54
2022-11-07T07:01:40.565Z,8.63
2022-11-07T07:03:40.436Z,8.60
2022-11-07T07:04:40.449Z,8.60
2022-11-07T07:05:40.464Z,8.57
2022-11-07T07:06:40.476Z,8.68
2022-11-07T07:07:40.488Z,8.63
2022-11-07T07:08:40.504Z,8.69
2022-11-07T07:09:40.516Z,8.66
2022-11-07T07:10:40.529Z,8.69
2022-11-07T07:11:40.544Z,8.66
2022-11-07T07:12:40.557Z,8.66
2022-11-07T07:13:40.572Z,8.72
2022-11-07T07:14:40.584Z,8.68
2022-11-07T07:15:50.339Z,8.71
2022-11-07T07:16:40.610Z,8.74
2022-11-07T07:17:40.623Z,8.74
2022-11-07T07:18:40.636Z,8.71
2022-11-07T07:19:40.649Z,8.66
2022-11-07T07:20:40.664Z,8.74
2022-11-07T07:21:40.679Z,8.75
2022-11-07T07:22:40.690Z,8.72
2022-11-07T07:23:40.703Z,8.75
2022-11-07T07:24:40.727Z,8.79
2022-11-07T07:25:40.735Z,8.82
2022-11-07T07:26:40.746Z,8.84
2022-11-07T07:27:40.755Z,8.79
2022-11-07T07:28:40.779Z,8.75
2022-11-07T07:29:40.784Z,8.82
2022-11-07T07:30:40.796Z,8.92
2022-11-07T07:31:40.810Z,8.92
2022-11-07T07:32:40.826Z,8.87
2022-11-07T07:33:40.840Z,8.89
2022-11-07T07:34:40.851Z,8.95
2022-11-07T07:35:40.864Z,8.95
2022-11-07T07:36:40.883Z,8.96
2022-11-07T07:37:40.893Z,9.09
2022-11-07T07:38:40.911Z,9.03
2022-11-07T07:39:40.920Z,9.13
2022-11-07T07:40:40.933Z,9.12
2022-11-07T07:41:40.950Z,9.13
2022-11-07T07:42:40.964Z,9.15
2022-11-07T07:43:40.975Z,9.16
2022-11-07T07:44:40.989Z,9.22
2022-11-07T07:45:41.000Z,9.19
2022-11-07T07:46:41.015Z,9.24
2022-11-07T07:47:41.032Z,9.24
2022-11-07T07:48:41.043Z,9.29
2022-11-07T07:49:41.057Z,9.27
2022-11-07T07:50:41.072Z,9.29
2022-11-07T07:51:41.088Z,9.29
2022-11-07T07:52:41.104Z,9.30
2022-11-07T07:53:41.113Z,9.29
2022-11-07T07:54:41.127Z,9.16
2022-11-07T07:55:41.145Z,9.24
2022-11-07T07:56:41.153Z,9.18
2022-11-07T07:57:41.190Z,9.19
2022-11-07T07:58:41.182Z,9.21
2022-11-07T07:59:41.198Z,9.21
2022-11-07T08:00:41.270Z,9.18
2022-11-07T08:01:41.346Z,9.03
2022-11-07T08:02:41.238Z,9.18
2022-11-07T08:04:00.254Z,9.12
2022-11-07T08:04:41.270Z,9.15
2022-11-07T08:05:41.281Z,9.21
2022-11-07T08:06:41.292Z,9.13
2022-11-07T08:07:41.307Z,9.09
2022-11-07T08:08:41.320Z,9.16
2022-11-07T08:09:41.334Z,9.11
2022-11-07T08:10:42.859Z,9.13
2022-11-07T08:11:41.380Z,9.13
2022-11-07T08:12:41.376Z,9.09
2022-11-07T08:13:41.386Z,9.11
2022-11-07T08:14:41.400Z,9.18
2022-11-07T08:15:41.415Z,9.15
2022-11-07T08:16:41.429Z,9.13
2022-11-07T08:17:41.442Z,9.18
2022-11-07T08:18:41.456Z,9.15
2022-11-07T08:19:41.471Z,9.15
2022-11-07T08:20:41.483Z,9.15
2022-11-07T08:21:41.499Z,9.15
2022-11-07T08:22:41.505Z,9.16
2022-11-07T08:23:41.526Z,9.19
2022-11-07T08:24:41.537Z,9.18
2022-11-07T08:25:41.556Z,9.15
2022-11-07T08:26:41.563Z,9.21
2022-11-07T08:27:41.577Z,9.18
2022-11-07T08:28:41.590Z,9.24
2022-11-07T08:29:41.602Z,9.30
2022-11-07T08:30:41.618Z,9.26
2022-11-07T08:31:41.633Z,9.24
2022-11-07T08:32:41.643Z,9.29
2022-11-07T08:33:41.685Z,9.31
2022-11-07T08:34:41.668Z,9.42
2022-11-07T08:35:42.888Z,9.31
2022-11-07T08:36:41.700Z,9.34
2022-11-07T08:37:41.713Z,9.33
2022-11-07T08:38:41.729Z,9.45
2022-11-07T08:39:41.737Z,9.40
2022-11-07T08:40:41.752Z,9.47
2022-11-07T08:41:41.769Z,9.51
2022-11-07T08:42:41.783Z,9.51
2022-11-07T08:43:41.791Z,9.62
2022-11-07T08:44:41.805Z,9.72
2022-11-07T08:45:41.821Z,9.80
2022-11-07T08:46:41.832Z,9.88
2022-11-07T08:47:41.846Z,9.92
2022-11-07T08:48:41.862Z,10.02
2022-11-07T08:49:41.874Z,10.10
2022-11-07T08:50:41.887Z,10.06
2022-11-07T08:51:41.902Z,10.15
2022-11-07T08:52:41.927Z,10.25
2022-11-07T08:53:41.937Z,10.30
2022-11-07T08:54:41.949Z,10.28
2022-11-07T08:55:41.960Z,10.43
2022-11-07T08:56:41.974Z,10.41
2022-11-07T08:57:42.002Z,10.49
2022-11-07T08:58:42.009Z,10.48
2022-11-07T08:59:42.016Z,10.48
2022-11-07T09:00:42.103Z,10.64
2022-11-07T09:02:14.346Z,10.76
2022-11-07T09:03:48.667Z,10.80
2022-11-07T09:04:42.150Z,10.92
2022-11-07T09:05:42.107Z,11.07
2022-11-07T09:06:42.122Z,11.02
2022-11-07T09:07:42.138Z,11.15
2022-11-07T09:08:42.151Z,11.13
2022-11-07T09:09:42.167Z,11.23
2022-11-07T09:10:42.182Z,11.22
2022-11-07T09:11:42.199Z,11.30
2022-11-07T09:12:42.217Z,11.25
2022-11-07T09:13:42.230Z,11.35
2022-11-07T09:14:42.248Z,11.35
2022-11-07T09:15:46.171Z,11.34
2022-11-07T09:16:42.277Z,11.48
2022-11-07T09:17:42.295Z,11.40
2022-11-07T09:18:42.309Z,11.51
2022-11-07T09:19:42.324Z,11.60
2022-11-07T09:20:42.340Z,11.60
2022-11-07T09:21:42.358Z,11.68
2022-11-07T09:22:42.373Z,11.73
2022-11-07T09:23:42.388Z,11.81
2022-11-07T09:24:42.405Z,11.73
2022-11-07T09:25:42.421Z,11.80
2022-11-07T09:26:42.439Z,11.77
2022-11-07T09:27:42.454Z,11.88
2022-11-07T09:28:45.750Z,11.89
2022-11-07T09:29:42.486Z,11.83
2022-11-07T09:30:42.502Z,11.81
2022-11-07T09:31:42.516Z,11.85
2022-11-07T09:32:45.332Z,11.81
2022-11-07T09:33:42.549Z,11.91
2022-11-07T09:34:42.566Z,11.91
2022-11-07T09:35:42.583Z,11.85
2022-11-07T09:36:42.597Z,11.97
2022-11-07T09:37:42.615Z,11.89
2022-11-07T09:38:42.635Z,12.05
2022-11-07T09:39:42.651Z,12.08
2022-11-07T09:40:42.662Z,12.11
2022-11-07T09:41:42.681Z,12.21
2022-11-07T09:42:42.696Z,12.25
2022-11-07T09:43:42.714Z,12.26
2022-11-07T09:44:42.728Z,12.29
2022-11-07T09:45:42.754Z,12.33
2022-11-07T09:46:42.763Z,12.40
2022-11-07T09:47:42.778Z,12.37
2022-11-07T09:48:42.795Z,12.35
2022-11-07T09:49:42.811Z,12.33
2022-11-07T09:50:42.826Z,12.36
2022-11-07T09:51:42.845Z,12.36
2022-11-07T09:52:42.860Z,12.33
2022-11-07T09:53:42.878Z,12.28
2022-11-07T09:54:42.893Z,12.30
2022-11-07T09:55:42.910Z,12.32
2022-11-07T09:56:42.924Z,12.25
2022-11-07T09:57:42.945Z,12.25
2022-11-07T09:58:42.962Z,12.26
2022-11-07T09:59:42.977Z,12.26
2022-11-07T10:00:43.021Z,12.26
2022-11-07T10:01:43.109Z,12.29
2022-11-07T10:02:43.024Z,12.20
2022-11-07T10:03:52.874Z,12.21
2022-11-07T10:04:43.056Z,12.21
2022-11-07T10:05:43.071Z,12.25
2022-11-07T10:06:43.087Z,12.29
2022-11-07T10:07:43.105Z,12.25
2022-11-07T10:08:43.121Z,12.26
2022-11-07T10:09:43.136Z,12.29
2022-11-07T10:10:43.150Z,12.29
2022-11-07T10:11:43.166Z,12.29
2022-11-07T10:12:44.727Z,12.29
2022-11-07T10:13:43.200Z,12.26
2022-11-07T10:14:43.216Z,12.21
2022-11-07T10:15:43.232Z,12.20
2022-11-07T10:16:43.248Z,12.20
2022-11-07T10:17:43.264Z,12.26
2022-11-07T10:18:43.282Z,12.30
2022-11-07T10:19:43.295Z,12.20
2022-11-07T10:20:43.317Z,12.29
2022-11-07T10:21:43.330Z,12.29
2022-11-07T10:22:43.344Z,12.26
2022-11-07T10:23:43.381Z,12.26
2022-11-07T10:24:43.377Z,12.33
2022-11-07T10:25:43.393Z,12.35
2022-11-07T10:26:43.406Z,12.33
2022-11-07T10:27:43.427Z,12.33
2022-11-07T10:28:43.443Z,12.35
2022-11-07T10:29:44.826Z,12.44
2022-11-07T10:30:43.472Z,12.36
2022-11-07T10:31:43.489Z,12.39
2022-11-07T10:32:43.508Z,12.44
2022-11-07T10:33:43.520Z,12.45
2022-11-07T10:34:43.539Z,12.40
2022-11-07T10:35:43.553Z,12.37
2022-11-07T10:36:43.569Z,12.39
2022-11-07T10:37:43.585Z,12.40
2022-11-07T10:38:43.599Z,12.43
2022-11-07T10:39:43.621Z,12.54
2022-11-07T10:40:43.634Z,12.57
2022-11-07T10:41:43.650Z,12.54
2022-11-07T10:42:43.665Z,12.51
2022-11-07T10:43:43.679Z,12.57
2022-11-07T10:44:43.700Z,12.68
2022-11-07T10:45:43.716Z,12.65
2022-11-07T10:46:43.732Z,12.65
2022-11-07T10:47:43.745Z,12.65
2022-11-07T10:48:43.762Z,12.70
2022-11-07T10:49:43.783Z,12.70
2022-11-07T10:50:43.795Z,12.73
2022-11-07T10:51:43.811Z,12.81
2022-11-07T10:52:43.829Z,12.75
2022-11-07T10:53:43.860Z,12.88
2022-11-07T10:54:43.870Z,12.76
2022-11-07T10:55:43.880Z,12.83
2022-11-07T10:56:43.893Z,12.76
2022-11-07T10:57:43.919Z,12.78
2022-11-07T10:58:43.931Z,12.72
2022-11-07T10:59:43.946Z,12.76
2022-11-07T11:00:43.992Z,12.80
2022-11-07T11:01:44.042Z,12.80
2022-11-07T11:02:43.997Z,12.83
2022-11-07T11:03:45.343Z,12.84
2022-11-07T11:04:48.021Z,12.83
2022-11-07T11:05:44.042Z,12.84
2022-11-07T11:06:44.061Z,12.94
2022-11-07T11:07:44.074Z,13.05
2022-11-07T11:08:44.091Z,13.05
2022-11-07T11:09:44.108Z,13.05
2022-11-07T11:10:44.128Z,13.13
2022-11-07T11:11:44.144Z,13.17
2022-11-07T11:12:44.160Z,13.08
2022-11-07T11:13:44.178Z,13.11
2022-11-07T11:14:44.193Z,13.20
2022-11-07T11:15:44.208Z,13.23
2022-11-07T11:16:44.379Z,13.26
2022-11-07T11:17:44.245Z,13.23
2022-11-07T11:18:44.262Z,13.31
2022-11-07T11:19:44.275Z,13.20
2022-11-07T11:20:44.293Z,13.28
2022-11-07T11:21:44.318Z,13.40
2022-11-07T11:22:44.327Z,13.36
2022-11-07T11:23:44.347Z,13.40
2022-11-07T11:24:44.362Z,13.45
2022-11-07T11:25:44.377Z,13.49
2022-11-07T11:26:44.395Z,13.39
2022-11-07T11:27:44.413Z,13.45
2022-11-07T11:28:44.427Z,13.42
2022-11-07T11:29:44.447Z,13.37
2022-11-07T11:30:44.460Z,13.42
2022-11-07T11:31:44.489Z,13.52
2022-11-07T11:32:44.497Z,13.49
2022-11-07T11:33:44.522Z,13.49
2022-11-07T11:34:44.530Z,13.50
2022-11-07T11:35:44.549Z,13.55
2022-11-07T11:36:44.570Z,13.54
2022-11-07T11:37:44.583Z,13.47
2022-11-07T11:38:44.598Z,13.58
2022-11-07T11:39:44.615Z,13.57
2022-11-07T11:40:44.635Z,13.55
2022-11-07T11:41:44.651Z,13.61
2022-11-07T11:42:44.671Z,13.67
2022-11-07T11:43:44.686Z,13.64
2022-11-07T11:44:44.703Z,13.71
2022-11-07T11:45:44.723Z,13.70
2022-11-07T11:46:44.738Z,13.79
2022-11-07T11:47:44.762Z,13.78
2022-11-07T11:48:44.771Z,13.76
2022-11-07T11:49:44.791Z,13.87
2022-11-07T11:50:44.806Z,13.91
2022-11-07T11:51:44.827Z,13.91
2022-11-07T11:52:44.841Z,13.94
2022-11-07T11:53:44.859Z,13.98
2022-11-07T11:54:44.880Z,13.95
2022-11-07T11:55:49.658Z,14.04
2022-11-07T11:56:44.912Z,14.05
2022-11-07T11:57:44.930Z,14.07
2022-11-07T11:58:44.946Z,14.13
2022-11-07T11:59:44.968Z,14.22
2022-11-07T12:00:44.982Z,14.11
2022-11-07T12:01:45.005Z,14.12
2022-11-07T12:02:45.072Z,14.18
2022-11-07T12:03:45.036Z,14.19
2022-11-07T12:04:45.056Z,14.26
2022-11-07T12:05:45.074Z,14.16
2022-11-07T12:06:45.089Z,14.26
2022-11-07T12:07:45.108Z,14.25
2022-11-07T12:08:45.128Z,14.26
2022-11-07T12:09:45.143Z,14.33
2022-11-07T12:10:45.162Z,14.30
2022-11-07T12:11:45.182Z,14.25
2022-11-07T12:12:45.199Z,14.25
2022-11-07T12:13:45.215Z,14.25
2022-11-07T12:14:45.236Z,14.26
2022-11-07T12:15:45.253Z,14.25
2022-11-07T12:16:45.271Z,14.37
2022-11-07T12:17:45.287Z,14.37
2022-11-07T12:18:45.305Z,14.37
2022-11-07T12:19:45.320Z,14.33
2022-11-07T12:20:45.342Z,14.38
2022-11-07T12:21:48.532Z,14.31
2022-11-07T12:22:45.378Z,14.28
2022-11-07T12:23:45.395Z,14.38
2022-11-07T12:24:45.412Z,14.36
2022-11-07T12:25:45.431Z,14.37
2022-11-07T12:26:45.446Z,14.33
2022-11-07T12:27:45.465Z,14.33
2022-11-07T12:28:45.486Z,14.36
2022-11-07T12:29:45.501Z,14.36
2022-11-07T12:30:45.519Z,14.38
2022-11-07T12:31:45.536Z,14.38
2022-11-07T12:32:45.563Z,14.45
2022-11-07T12:33:45.591Z,14.48
2022-11-07T12:34:45.589Z,14.38
2022-11-07T12:35:45.610Z,14.45
2022-11-07T12:36:45.630Z,14.40
2022-11-07T12:37:45.646Z,14.38
2022-11-07T12:38:45.662Z,14.38
2022-11-07T12:39:45.679Z,14.48
2022-11-07T12:40:45.699Z,14.38
2022-11-07T12:41:45.715Z,14.52
2022-11-07T12:42:46.479Z,14.45
2022-11-07T12:43:45.751Z,14.48
2022-11-07T12:44:45.774Z,14.40
2022-11-07T12:45:45.797Z,14.45
2022-11-07T12:46:45.805Z,14.41
2022-11-07T12:47:45.822Z,14.44
2022-11-07T12:48:45.848Z,14.44
2022-11-07T12:49:45.858Z,14.31
2022-11-07T12:50:45.877Z,14.34
2022-11-07T12:51:45.893Z,14.36
2022-11-07T12:52:45.910Z,14.31
2022-11-07T12:53:45.930Z,14.34
2022-11-07T12:54:45.946Z,14.33
2022-11-07T12:55:45.968Z,14.40
2022-11-07T12:56:45.981Z,14.40
2022-11-07T12:57:46.002Z,14.34
2022-11-07T12:58:46.019Z,14.41
2022-11-07T12:59:46.036Z,14.44
2022-11-07T13:00:46.070Z,14.55
2022-11-07T13:01:46.221Z,14.44
2022-11-07T13:02:46.126Z,14.44
2022-11-07T13:03:46.107Z,14.56
2022-11-07T13:04:46.128Z,14.61
2022-11-07T13:05:46.144Z,14.56
2022-11-07T13:06:46.163Z,14.53
2022-11-07T13:07:46.186Z,14.66
2022-11-07T13:08:46.200Z,14.56
2022-11-07T13:09:46.216Z,14.55
2022-11-07T13:10:46.232Z,14.48
2022-11-07T13:11:46.252Z,14.59